Time;durP1;ratioP1;P1;durP2;ratioP2;P2;SDS_P1;SDS_P2;PMS_P1;PMS_P2;Temp;Humidity;BMP_temperature;BMP_pressure;BME280_temperature;BME280_humidity;BME280_pressure;Samples;Min_cycle;Max_cycle;Signal;HPM_P1;HPM_P2
2023/03/07 00:00:42;;;;;;;17.63;12.93;;;;;;;4.90;79.71;98277.88;5019344;28;20281;-80
2023/03/07 00:03:19;;;;;;;18.70;13.13;;;;;;;4.72;79.79;98269.84;5018337;28;20305;-80
2023/03/07 00:05:46;;;;;;;18.63;12.47;;;;;;;4.74;80.15;98276.56;5018585;28;20214;-80
2023/03/07 00:08:22;;;;;;;17.53;12.73;;;;;;;4.72;80.45;98278.63;5018687;28;20236;-81
2023/03/07 00:10:51;;;;;;;17.57;12.10;;;;;;;4.78;80.36;98283.06;5034656;28;20225;-79
2023/03/07 00:13:20;;;;;;;18.70;13.00;;;;;;;4.74;80.03;98279.22;5034575;28;20694;-79
2023/03/07 00:15:47;;;;;;;17.50;12.80;;;;;;;4.76;80.30;98282.47;5034649;28;20224;-80
2023/03/07 00:18:16;;;;;;;19.47;13.03;;;;;;;4.67;80.78;98275.78;5018623;28;20202;-79
2023/03/07 00:21:00;;;;;;;18.20;12.90;;;;;;;4.58;81.03;98263.00;5034776;28;20194;-81
2023/03/07 00:23:31;;;;;;;19.63;13.33;;;;;;;4.50;81.45;98274.69;5002596;28;20234;-80
2023/03/07 00:26:11;;;;;;;19.87;13.17;;;;;;;4.51;81.53;98272.84;5018279;28;20210;-81
2023/03/07 00:28:41;;;;;;;18.83;13.23;;;;;;;4.45;82.07;98269.22;5011107;28;20186;-79
2023/03/07 00:31:11;;;;;;;19.50;13.53;;;;;;;4.44;82.16;98267.59;5001862;28;20661;-80
2023/03/07 00:33:41;;;;;;;18.67;12.93;;;;;;;4.51;81.65;98276.31;5012513;28;20662;-79
2023/03/07 00:36:12;;;;;;;19.40;13.57;;;;;;;4.37;82.07;98262.34;5002188;28;20307;-79
2023/03/07 00:38:39;;;;;;;18.40;12.90;;;;;;;4.41;82.14;98266.19;5034090;28;20216;-79
2023/03/07 00:41:12;;;;;;;20.27;13.40;;;;;;;4.40;82.05;98261.06;5022045;28;20194;-79
2023/03/07 00:43:40;;;;;;;20.07;13.53;;;;;;;4.42;81.56;98254.56;5015324;28;20225;-80
2023/03/07 00:46:08;;;;;;;19.53;12.73;;;;;;;4.35;82.27;98253.75;5001515;28;20285;-79
2023/03/07 00:48:37;;;;;;;19.33;13.10;;;;;;;4.26;82.30;98252.38;5017632;28;20688;-80
2023/03/07 00:51:05;;;;;;;19.63;13.10;;;;;;;4.25;82.57;98250.75;5018076;28;20206;-80
2023/03/07 00:53:36;;;;;;;19.70;13.60;;;;;;;4.28;82.21;98250.34;5001725;28;20194;-79
2023/03/07 00:56:18;;;;;;;19.97;13.07;;;;;;;4.16;82.23;98251.22;5001988;28;20584;-79
2023/03/07 00:58:48;;;;;;;18.07;12.93;;;;;;;4.02;82.91;98249.66;5006129;28;20195;-79
2023/03/07 01:01:36;;;;;;;20.00;13.73;;;;;;;3.89;83.38;98240.75;5030782;28;20198;-81
2023/03/07 01:04:08;;;;;;;19.87;13.73;;;;;;;3.85;83.73;98238.72;5017994;28;20445;-80
2023/03/07 01:06:37;;;;;;;18.50;12.97;;;;;;;3.78;83.67;98232.66;5017526;28;20709;-80
2023/03/07 01:09:10;;;;;;;19.30;12.97;;;;;;;3.71;84.21;98232.69;5013663;28;20550;-80
2023/03/07 01:11:37;;;;;;;17.43;13.00;;;;;;;3.67;84.64;98233.31;5017469;28;20201;-79
2023/03/07 01:14:05;;;;;;;18.73;12.63;;;;;;;3.69;84.87;98226.75;5015793;28;20226;-80
2023/03/07 01:16:37;;;;;;;17.07;12.60;;;;;;;3.59;85.52;98225.59;5033775;28;20273;-80
2023/03/07 01:19:06;;;;;;;19.63;13.67;;;;;;;3.60;85.03;98227.19;5015706;28;20210;-79
2023/03/07 01:21:36;;;;;;;18.73;12.53;;;;;;;3.57;85.52;98228.44;5001141;28;20212;-80
2023/03/07 01:24:06;;;;;;;18.03;12.80;;;;;;;3.43;85.83;98214.44;5007903;28;20203;-80
2023/03/07 01:26:35;;;;;;;18.73;12.50;;;;;;;3.33;86.85;98214.06;5005386;28;20241;-79
2023/03/07 01:29:09;;;;;;;17.20;13.13;;;;;;;3.31;87.16;98216.06;5010973;28;20268;-82
2023/03/07 01:31:38;;;;;;;19.20;14.03;;;;;;;3.28;87.23;98218.34;5015563;28;20190;-79
2023/03/07 01:34:06;;;;;;;18.87;12.70;;;;;;;3.28;87.22;98211.22;5033089;28;20194;-79
2023/03/07 01:36:35;;;;;;;19.27;13.00;;;;;;;3.20;87.84;98213.25;5015267;28;20193;-79
2023/03/07 01:39:16;;;;;;;19.60;13.23;;;;;;;3.21;88.16;98210.44;5010594;28;20238;-81
2023/03/07 01:41:50;;;;;;;19.40;13.13;;;;;;;3.10;88.81;98208.41;5033077;28;20292;-79
2023/03/07 01:44:23;;;;;;;19.20;12.23;;;;;;;3.13;89.04;98209.84;5000929;28;20194;-79
2023/03/07 01:46:53;;;;;;;18.87;12.83;;;;;;;3.13;89.38;98202.69;5017128;28;20248;-80
2023/03/07 01:49:44;;;;;;;18.33;12.80;;;;;;;3.08;90.03;98203.31;5024934;28;20229;-82
2023/03/07 01:53:00;;;;;;;18.23;12.23;;;;;;;3.18;89.33;98208.16;5017783;28;20248;-80
2023/03/07 01:55:32;;;;;;;16.67;12.27;;;;;;;3.20;89.11;98213.25;5021065;28;20257;-80
2023/03/07 01:58:13;;;;;;;17.80;12.20;;;;;;;3.22;89.35;98216.53;5018228;28;20256;-80
2023/03/07 02:00:41;;;;;;;18.60;12.03;;;;;;;3.22;89.35;98205.94;5016596;28;20604;-81
2023/03/07 02:03:09;;;;;;;17.77;12.40;;;;;;;3.26;88.89;98207.97;5016355;28;20248;-79
2023/03/07 02:05:50;;;;;;;16.97;11.70;;;;;;;3.23;88.64;98194.31;5016877;28;20222;-82
2023/03/07 02:08:21;;;;;;;15.10;11.27;;;;;;;3.21;89.35;98185.78;5008696;28;20200;-79
2023/03/07 02:10:48;;;;;;;16.33;11.63;;;;;;;3.24;89.51;98193.31;5001598;28;20218;-82
2023/03/07 02:13:15;;;;;;;16.13;11.83;;;;;;;3.27;89.17;98190.22;5001019;28;20230;-82
2023/03/07 02:15:55;;;;;;;15.93;11.40;;;;;;;3.30;89.60;98188.00;5019032;28;20202;-78
2023/03/07 02:18:28;;;;;;;16.07;11.73;;;;;;;3.34;89.60;98188.38;5012445;28;20202;-79
2023/03/07 02:21:25;;;;;;;17.53;11.77;;;;;;;3.29;89.23;98181.06;5017615;28;20662;-78
2023/03/07 02:24:23;;;;;;;20.47;12.43;;;;;;;3.25;90.26;98184.34;5001576;28;20328;-80
2023/03/07 02:26:57;;;;;;;16.33;11.67;;;;;;;3.26;90.10;98178.84;5026972;28;20206;-81
2023/03/07 02:29:30;;;;;;;17.47;12.20;;;;;;;3.05;90.65;98171.16;5016407;28;20222;-79
2023/03/07 02:32:01;;;;;;;17.03;11.57;;;;;;;3.13;90.31;98175.44;5016772;28;20213;-79
2023/03/07 02:34:31;;;;;;;14.73;10.83;;;;;;;3.23;89.54;98165.19;5015917;28;20216;-79
2023/03/07 02:37:14;;;;;;;16.20;11.80;;;;;;;3.18;89.65;98159.72;5017109;28;20209;-79
2023/03/07 02:39:44;;;;;;;16.40;11.47;;;;;;;3.17;89.92;98160.75;5015905;28;20289;-81
2023/03/07 02:42:24;;;;;;;16.93;11.93;;;;;;;3.14;90.47;98159.31;5032544;28;20248;-78
2023/03/07 02:45:05;;;;;;;16.93;11.40;;;;;;;3.19;90.26;98146.28;5009019;28;20252;-82
2023/03/07 02:47:37;;;;;;;15.40;11.17;;;;;;;3.17;89.96;98155.47;5017400;28;20255;-79
2023/03/07 02:50:15;;;;;;;16.70;11.93;;;;;;;3.16;90.15;98154.66;5003669;28;20244;-81
2023/03/07 02:52:48;;;;;;;16.57;12.17;;;;;;;3.19;91.07;98153.41;5015450;28;20197;-81
2023/03/07 02:55:15;;;;;;;16.23;11.33;;;;;;;3.15;90.67;98145.09;5012253;28;20199;-81
2023/03/07 02:57:58;;;;;;;16.87;11.83;;;;;;;3.16;91.67;98153.84;5017865;28;20753;-81
2023/03/07 03:00:28;;;;;;;17.57;11.97;;;;;;;3.08;92.10;98147.72;5018561;28;20194;-79
2023/03/07 03:02:55;;;;;;;18.70;12.20;;;;;;;3.14;92.15;98161.97;5036439;28;20705;-80
2023/03/07 03:05:24;;;;;;;18.43;12.70;;;;;;;3.07;91.86;98158.53;5036006;28;20218;-81
2023/03/07 03:07:55;;;;;;;17.23;11.93;;;;;;;3.03;91.35;98155.47;5019566;28;20699;-78
2023/03/07 03:10:22;;;;;;;16.27;12.07;;;;;;;3.04;92.05;98158.94;5019771;28;20205;-79
2023/03/07 03:12:49;;;;;;;17.67;12.70;;;;;;;3.09;91.65;98169.72;5030925;28;20291;-81
2023/03/07 03:15:16;;;;;;;18.87;12.70;;;;;;;3.03;91.48;98159.97;5019638;28;20198;-80
2023/03/07 03:17:46;;;;;;;16.63;12.10;;;;;;;2.99;91.71;98169.31;5019435;28;20198;-80
2023/03/07 03:20:15;;;;;;;19.30;12.50;;;;;;;2.95;92.44;98170.75;5036335;28;20194;-81
2023/03/07 03:22:45;;;;;;;17.53;12.40;;;;;;;2.92;92.49;98168.53;5028951;28;20209;-79
2023/03/07 03:25:17;;;;;;;18.03;12.50;;;;;;;2.95;92.42;98168.13;5020211;28;20240;-80
2023/03/07 03:27:44;;;;;;;18.87;12.97;;;;;;;2.93;92.43;98167.53;5019301;28;20218;-79
2023/03/07 03:30:17;;;;;;;18.13;12.50;;;;;;;2.96;92.08;98173.22;5007629;28;20221;-80
2023/03/07 03:32:49;;;;;;;18.67;12.80;;;;;;;2.94;92.00;98169.16;5019885;28;20202;-79
2023/03/07 03:35:24;;;;;;;21.90;13.97;;;;;;;2.92;91.62;98169.34;5019550;28;20208;-82
2023/03/07 03:37:56;;;;;;;21.77;14.20;;;;;;;2.93;91.63;98171.00;5028025;28;20259;-79
2023/03/07 03:40:27;;;;;;;22.00;13.80;;;;;;;2.94;91.55;98169.16;5009979;28;20224;-80
2023/03/07 03:42:56;;;;;;;23.57;15.00;;;;;;;2.94;92.05;98180.53;5019078;28;20237;-80
2023/03/07 03:45:24;;;;;;;17.80;13.23;;;;;;;2.95;92.05;98171.56;5019338;28;20281;-79
2023/03/07 03:47:55;;;;;;;18.83;13.23;;;;;;;2.99;92.42;98180.72;5034337;28;20202;-80
2023/03/07 03:50:24;;;;;;;20.73;13.70;;;;;;;2.98;93.09;98180.94;5014219;28;20687;-80
2023/03/07 03:52:52;;;;;;;20.93;14.07;;;;;;;2.94;93.49;98174.44;5034729;28;20590;-79
2023/03/07 03:55:19;;;;;;;19.37;13.80;;;;;;;2.88;93.68;98185.84;5034088;28;20284;-79
2023/03/07 03:57:45;;;;;;;22.30;14.07;;;;;;;2.87;94.18;98185.03;5016832;28;20658;-85
2023/03/07 04:00:14;;;;;;;17.90;13.50;;;;;;;2.90;94.12;98176.66;5032272;28;20198;-79
2023/03/07 04:02:45;;;;;;;20.23;13.00;;;;;;;2.92;94.16;98184.41;5018120;28;20305;-79
2023/03/07 04:05:15;;;;;;;21.00;14.17;;;;;;;2.91;94.60;98186.25;5018887;28;20242;-82
2023/03/07 04:07:48;;;;;;;19.67;13.13;;;;;;;2.90;94.83;98187.25;5035034;28;20202;-81
2023/03/07 04:10:18;;;;;;;17.57;12.53;;;;;;;2.93;95.27;98171.00;5019271;28;20206;-81
2023/03/07 04:12:49;;;;;;;22.23;13.80;;;;;;;2.86;96.10;98179.94;5018636;28;20241;-79
2023/03/07 04:15:17;;;;;;;17.10;12.77;;;;;;;2.82;96.40;98165.50;5015590;28;20191;-78
2023/03/07 04:17:43;;;;;;;19.97;13.30;;;;;;;2.79;97.30;98168.56;5033937;28;20210;-80
2023/03/07 04:20:16;;;;;;;19.07;14.17;;;;;;;2.80;98.08;98180.78;5035065;28;20194;-79
2023/03/07 04:22:58;;;;;;;19.47;13.10;;;;;;;2.75;98.51;98170.81;5031448;28;20225;-79
2023/03/07 04:25:25;;;;;;;19.43;13.20;;;;;;;2.76;98.79;98163.66;5033943;28;20189;-80
2023/03/07 04:27:52;;;;;;;18.60;13.23;;;;;;;2.72;99.65;98157.16;5017917;28;20194;-79
2023/03/07 04:30:19;;;;;;;18.20;12.97;;;;;;;2.67;99.96;98160.41;5034653;28;20228;-81
2023/03/07 04:32:54;;;;;;;18.43;12.57;;;;;;;2.60;100.00;98155.16;5018838;28;20225;-80
2023/03/07 04:35:21;;;;;;;18.27;12.53;;;;;;;2.59;100.00;98155.34;5034475;28;20210;-81
2023/03/07 04:37:49;;;;;;;19.03;12.60;;;;;;;2.60;100.00;98163.09;5018357;28;20197;-84
2023/03/07 04:40:16;;;;;;;18.83;12.50;;;;;;;2.61;100.00;98155.97;5034814;28;20190;-79
2023/03/07 04:42:46;;;;;;;16.30;12.00;;;;;;;2.59;100.00;98161.44;5010156;28;20210;-81
2023/03/07 04:45:18;;;;;;;18.30;12.50;;;;;;;2.61;100.00;98155.97;5035092;28;20221;-79
2023/03/07 04:47:45;;;;;;;17.83;12.07;;;;;;;2.65;100.00;98155.34;5033807;28;20754;-80
2023/03/07 04:50:12;;;;;;;17.57;11.57;;;;;;;2.70;100.00;98151.28;5035331;28;20194;-80
2023/03/07 04:52:43;;;;;;;17.10;11.63;;;;;;;2.61;100.00;98153.31;5018345;28;20762;-80
2023/03/07 04:55:10;;;;;;;17.17;11.80;;;;;;;2.62;100.00;98153.09;5017434;28;20655;-79
2023/03/07 04:57:38;;;;;;;14.43;10.87;;;;;;;2.62;100.00;98163.69;5017947;28;20194;-79
2023/03/07 05:00:10;;;;;;;16.57;11.60;;;;;;;2.63;100.00;98157.38;5017835;28;20194;-80
2023/03/07 05:02:38;;;;;;;16.03;10.63;;;;;;;2.66;100.00;98162.25;5017989;28;20548;-79
2023/03/07 05:05:13;;;;;;;16.30;11.13;;;;;;;2.69;100.00;98157.59;5034176;28;20585;-81
2023/03/07 05:07:42;;;;;;;15.53;11.30;;;;;;;2.70;100.00;98159.22;5017877;28;20193;-79
2023/03/07 05:10:14;;;;;;;15.30;11.43;;;;;;;2.70;100.00;98164.50;5018042;28;20209;-80
2023/03/07 05:12:45;;;;;;;16.33;11.70;;;;;;;2.67;100.00;98169.16;5033533;28;20234;-80
2023/03/07 05:15:12;;;;;;;16.63;11.80;;;;;;;2.69;100.00;98170.81;5017074;28;20281;-79
2023/03/07 05:17:43;;;;;;;17.00;11.80;;;;;;;2.63;100.00;98170.59;5017752;28;20571;-80
2023/03/07 05:20:11;;;;;;;18.00;11.77;;;;;;;2.62;100.00;98170.78;5033672;28;20218;-82
2023/03/07 05:22:43;;;;;;;16.90;11.87;;;;;;;2.63;100.00;98173.25;5033410;28;20243;-80
2023/03/07 05:25:18;;;;;;;16.83;12.00;;;;;;;2.69;100.00;98168.16;5033402;28;20182;-80
2023/03/07 05:27:45;;;;;;;45.53;26.50;;;;;;;2.63;100.00;98162.66;5034532;28;20678;-79
2023/03/07 05:30:12;;;;;;;49.37;29.13;;;;;;;2.65;100.00;98165.94;5033457;28;20273;-78
2023/03/07 05:32:44;;;;;;;21.43;14.00;;;;;;;2.62;100.00;98161.03;5033418;28;20194;-78
2023/03/07 05:35:16;;;;;;;18.00;12.50;;;;;;;2.63;100.00;98162.66;5027759;28;20651;-79
2023/03/07 05:37:50;;;;;;;17.00;13.87;;;;;;;2.65;100.00;98165.94;5017655;28;20194;-79
2023/03/07 05:40:22;;;;;;;19.27;13.37;;;;;;;2.72;100.00;98160.63;5033556;28;20218;-82
2023/03/07 05:42:48;;;;;;;17.63;12.60;;;;;;;2.74;100.00;98169.19;5032573;28;20260;-81
2023/03/07 05:45:19;;;;;;;19.50;14.23;;;;;;;2.78;100.00;98172.22;5032780;28;20252;-79
2023/03/07 05:47:52;;;;;;;18.33;13.20;;;;;;;2.90;100.00;98163.44;5018257;28;20198;-78
2023/03/07 05:50:27;;;;;;;16.63;11.93;;;;;;;2.95;100.00;98168.94;5038338;28;20209;-80
2023/03/07 05:53:00;;;;;;;20.23;13.10;;;;;;;2.99;100.00;98171.97;5017013;28;20198;-80
2023/03/07 05:55:29;;;;;;;20.13;13.23;;;;;;;3.06;100.00;98164.84;5001786;28;20210;-79
2023/03/07 05:57:57;;;;;;;16.63;11.97;;;;;;;3.09;100.00;98175.81;5013486;28;20195;-80
2023/03/07 06:00:27;;;;;;;16.53;12.17;;;;;;;3.15;100.00;98168.09;5019907;28;20680;-79
2023/03/07 06:03:05;;;;;;;17.07;11.67;;;;;;;3.17;100.00;98172.16;5033782;28;20190;-80
2023/03/07 06:05:32;;;;;;;17.80;11.60;;;;;;;3.26;100.00;98176.22;5032459;28;20225;-80
2023/03/07 06:08:02;;;;;;;15.80;11.60;;;;;;;3.31;100.00;98179.00;5016173;28;20285;-82
2023/03/07 06:10:29;;;;;;;14.97;11.03;;;;;;;3.37;100.00;98177.38;5009882;28;20728;-80
2023/03/07 06:12:59;;;;;;;15.07;10.93;;;;;;;3.46;100.00;98179.59;5028925;28;20235;-79
2023/03/07 06:15:30;;;;;;;15.20;11.57;;;;;;;3.54;100.00;98178.56;5031456;28;20194;-81
2023/03/07 06:18:01;;;;;;;16.60;11.47;;;;;;;3.61;99.91;98181.16;5017618;28;20206;-81
2023/03/07 06:20:30;;;;;;;18.10;11.57;;;;;;;3.71;99.06;98184.19;5034539;28;20202;-82
2023/03/07 06:23:00;;;;;;;16.60;10.87;;;;;;;3.77;98.87;98181.50;5033556;28;20272;-80
2023/03/07 06:25:29;;;;;;;17.00;11.47;;;;;;;3.86;98.66;98187.38;5032646;28;20222;-80
2023/03/07 06:27:59;;;;;;;23.10;14.00;;;;;;;3.94;98.16;98193.25;5032076;28;20240;-80
2023/03/07 06:30:31;;;;;;;23.27;14.87;;;;;;;4.03;96.75;98193.78;5031945;28;20223;-81
2023/03/07 06:32:58;;;;;;;21.37;14.67;;;;;;;4.13;96.82;98182.72;5032532;28;20240;-79
2023/03/07 06:35:30;;;;;;;18.10;13.20;;;;;;;4.20;95.84;98180.88;5032080;28;20186;-80
2023/03/07 06:37:59;;;;;;;17.37;11.43;;;;;;;4.30;95.79;98186.47;5029245;28;20194;-80
2023/03/07 06:40:27;;;;;;;16.70;12.27;;;;;;;4.38;95.19;98186.25;5034218;28;20186;-80
2023/03/07 06:42:54;;;;;;;20.53;12.43;;;;;;;4.46;94.20;98179.84;5012299;28;20277;-80
2023/03/07 06:45:23;;;;;;;14.40;11.57;;;;;;;4.58;94.44;98184.25;5028104;28;20205;-79
2023/03/07 06:48:00;;;;;;;17.77;14.30;;;;;;;4.68;94.52;98179.25;5028253;28;20206;-79
2023/03/07 06:50:30;;;;;;;16.27;12.10;;;;;;;4.84;93.23;98175.25;5013163;28;20263;-79
2023/03/07 06:53:04;;;;;;;17.43;11.60;;;;;;;4.97;92.79;98177.78;5030984;28;20297;-80
2023/03/07 06:55:33;;;;;;;17.03;12.33;;;;;;;5.18;92.35;98172.03;5015617;28;20204;-81
2023/03/07 06:58:05;;;;;;;16.63;11.87;;;;;;;5.35;91.58;98174.13;5012530;28;20226;-80
2023/03/07 07:00:32;;;;;;;16.67;11.83;;;;;;;5.57;90.12;98177.97;5014442;28;20312;-80
2023/03/07 07:03:02;;;;;;;15.43;11.97;;;;;;;5.69;88.89;98176.97;5029314;28;20275;-80
2023/03/07 07:05:29;;;;;;;15.77;11.50;;;;;;;5.83;87.31;98177.66;5031731;28;20307;-80
2023/03/07 07:08:00;;;;;;;15.10;11.87;;;;;;;5.86;87.09;98182.50;4999709;28;20212;-82
2023/03/07 07:10:28;;;;;;;16.10;11.93;;;;;;;5.94;87.10;98176.91;4999850;28;20222;-79
2023/03/07 07:13:19;;;;;;;15.03;11.17;;;;;;;6.08;87.14;98178.34;5031531;28;20306;-79
2023/03/07 07:15:47;;;;;;;16.57;11.97;;;;;;;6.28;86.30;98174.59;5026465;28;20206;-80
2023/03/07 07:18:13;;;;;;;17.63;11.30;;;;;;;6.47;84.62;98169.00;5029301;28;20574;-79
2023/03/07 07:20:43;;;;;;;14.20;11.27;;;;;;;6.62;84.74;98169.34;5035479;28;20209;-80
2023/03/07 07:23:10;;;;;;;13.70;11.47;;;;;;;6.73;84.19;98169.59;5031429;28;20245;-80
2023/03/07 07:25:42;;;;;;;14.20;11.53;;;;;;;6.86;84.33;98172.84;5032720;28;20195;-79
2023/03/07 07:28:08;;;;;;;16.93;11.47;;;;;;;6.99;83.16;98166.50;5031449;28;20265;-80
2023/03/07 07:30:41;;;;;;;14.70;10.87;;;;;;;7.02;82.40;98172.16;5015720;28;20221;-79
2023/03/07 07:33:18;;;;;;;18.60;11.67;;;;;;;7.11;82.00;98175.28;5015738;28;20626;-81
2023/03/07 07:35:49;;;;;;;16.67;11.20;;;;;;;7.20;81.80;98176.53;5015351;28;20210;-80
2023/03/07 07:38:25;;;;;;;16.83;11.77;;;;;;;7.25;81.71;98178.50;5015372;28;20241;-80
2023/03/07 07:40:59;;;;;;;15.80;11.37;;;;;;;7.40;81.85;98173.50;5019863;28;20214;-79
2023/03/07 07:43:27;;;;;;;14.80;11.03;;;;;;;7.62;81.48;98181.69;5031601;28;20198;-79
2023/03/07 07:46:06;;;;;;;18.43;12.23;;;;;;;7.80;80.52;98182.34;5018030;28;20240;-82
2023/03/07 07:48:34;;;;;;;16.90;11.93;;;;;;;7.92;79.69;98177.78;5018473;28;20191;-79
2023/03/07 07:51:06;;;;;;;15.53;11.07;;;;;;;7.98;79.39;98184.00;5034999;28;20202;-79
2023/03/07 07:53:35;;;;;;;16.73;12.03;;;;;;;8.05;78.70;98181.22;5034823;28;20205;-79
2023/03/07 07:56:08;;;;;;;16.83;11.77;;;;;;;8.21;78.68;98183.91;5018990;28;20654;-79
2023/03/07 07:58:34;;;;;;;15.67;11.60;;;;;;;8.48;78.38;98183.34;5035662;28;20221;-80
2023/03/07 08:01:16;;;;;;;16.57;12.10;;;;;;;8.83;77.13;98179.41;5018823;28;20220;-79
2023/03/07 08:03:43;;;;;;;15.37;11.73;;;;;;;9.03;75.63;98180.78;5034634;28;20275;-81
2023/03/07 08:06:17;;;;;;;15.97;11.77;;;;;;;9.13;75.06;98183.59;5034608;28;20293;-79
2023/03/07 08:08:51;;;;;;;19.87;13.70;;;;;;;9.16;74.72;98172.41;5034382;28;20662;-79
2023/03/07 08:11:23;;;;;;;15.53;12.30;;;;;;;9.20;74.37;98177.00;5018999;28;20209;-80
2023/03/07 08:13:49;;;;;;;16.73;12.20;;;;;;;9.27;74.30;98179.53;5034350;28;20701;-79
2023/03/07 08:16:23;;;;;;;16.37;12.13;;;;;;;9.38;74.34;98173.25;5017591;28;20555;-78
2023/03/07 08:18:56;;;;;;;15.70;11.70;;;;;;;9.42;74.33;98169.06;5034272;28;20655;-79
2023/03/07 08:21:26;;;;;;;14.40;12.00;;;;;;;9.56;74.04;98167.63;5035432;28;20220;-79
2023/03/07 08:24:02;;;;;;;16.53;11.93;;;;;;;9.71;73.49;98172.34;5033919;28;20218;-78
2023/03/07 08:26:33;;;;;;;17.67;12.10;;;;;;;9.79;73.37;98161.22;5028196;28;20250;-78
2023/03/07 08:29:00;;;;;;;16.77;12.77;;;;;;;9.96;73.19;98159.28;5025969;28;20886;-78
2023/03/07 08:31:27;;;;;;;16.97;12.57;;;;;;;9.98;72.47;98156.34;5027027;28;20244;-78
2023/03/07 08:33:56;;;;;;;16.80;12.70;;;;;;;10.17;72.43;98146.97;5031883;28;20689;-80
2023/03/07 08:36:26;;;;;;;17.33;12.80;;;;;;;10.34;71.80;98146.84;5027790;28;20301;-79
2023/03/07 08:38:54;;;;;;;16.63;12.00;;;;;;;10.39;71.70;98147.69;5033371;28;20288;-80
2023/03/07 08:41:21;;;;;;;14.97;12.43;;;;;;;10.48;71.71;98159.56;5011022;28;20222;-82
2023/03/07 08:43:50;;;;;;;15.73;12.60;;;;;;;10.56;71.45;98147.56;5029043;28;20241;-81
2023/03/07 08:46:17;;;;;;;15.73;12.10;;;;;;;10.62;71.31;98143.06;5009065;28;20192;-79
2023/03/07 08:48:44;;;;;;;16.27;12.43;;;;;;;10.64;70.77;98147.09;5012867;28;20659;-80
2023/03/07 08:51:16;;;;;;;16.50;12.73;;;;;;;10.74;70.36;98149.03;5015857;28;20186;-80
2023/03/07 08:53:45;;;;;;;15.20;12.30;;;;;;;10.79;70.17;98149.06;5014111;28;20198;-80
2023/03/07 08:56:23;;;;;;;14.57;12.13;;;;;;;10.84;69.54;98155.28;5033016;28;20578;-79
2023/03/07 08:58:52;;;;;;;14.97;11.93;;;;;;;10.99;69.06;98149.25;5032187;28;20186;-78
2023/03/07 09:01:19;;;;;;;15.37;12.70;;;;;;;11.10;68.48;98140.22;5015609;28;20277;-81
2023/03/07 09:03:46;;;;;;;17.03;12.60;;;;;;;11.30;68.17;98145.66;5032765;28;20198;-79
2023/03/07 09:06:18;;;;;;;14.40;12.30;;;;;;;11.35;69.04;98145.69;5012145;28;20667;-80
2023/03/07 09:08:47;;;;;;;13.97;11.60;;;;;;;11.52;67.67;98140.16;5033949;28;20198;-78
2023/03/07 09:11:17;;;;;;;16.03;12.70;;;;;;;11.69;67.50;98140.75;5015312;28;20248;-78
2023/03/07 09:13:50;;;;;;;16.07;12.53;;;;;;;11.88;67.40;98136.56;5033656;28;20226;-79
2023/03/07 09:16:20;;;;;;;14.17;11.50;;;;;;;12.01;65.97;98127.22;5016645;28;20190;-79
2023/03/07 09:18:49;;;;;;;15.60;11.70;;;;;;;12.12;64.44;98130.72;5032661;28;20252;-80
2023/03/07 09:21:37;;;;;;;15.17;11.13;;;;;;;12.21;63.11;98131.81;5012204;28;20206;-78
2023/03/07 09:24:04;;;;;;;14.27;10.10;;;;;;;12.38;63.47;98123.50;5029767;28;20252;-78
2023/03/07 09:26:30;;;;;;;14.93;10.63;;;;;;;12.58;62.43;98124.34;5047848;28;20232;-79
2023/03/07 09:29:07;;;;;;;14.00;10.67;;;;;;;12.81;61.86;98128.34;5033546;28;20697;-78
2023/03/07 09:31:40;;;;;;;13.07;10.77;;;;;;;12.97;60.73;98121.88;5032260;28;20567;-78
2023/03/07 09:34:07;;;;;;;13.90;11.07;;;;;;;12.94;60.75;98113.53;5013144;28;20252;-79
2023/03/07 09:36:47;;;;;;;14.67;11.00;;;;;;;12.95;59.45;98117.84;5028876;28;20189;-79
2023/03/07 09:39:15;;;;;;;15.73;11.07;;;;;;;13.08;59.63;98119.97;5003824;28;20203;-78
2023/03/07 09:41:53;;;;;;;17.80;11.93;;;;;;;13.01;59.32;98116.78;5028368;28;20208;-79
2023/03/07 09:44:40;;;;;;;16.70;12.33;;;;;;;12.98;60.94;98118.09;5031989;28;20206;-79
2023/03/07 09:48:09;;;;;;;16.67;11.50;;;;;;;12.74;61.87;98115.19;5015996;28;20198;-78
2023/03/07 09:50:57;;;;;;;14.30;11.63;;;;;;;12.72;61.99;98103.91;5032810;28;20630;-80
2023/03/07 09:53:44;;;;;;;14.53;12.27;;;;;;;12.63;62.55;98102.84;5028581;28;20201;-79
2023/03/07 09:56:38;;;;;;;13.03;10.73;;;;;;;12.68;63.49;98102.84;5032014;28;20205;-79
2023/03/07 09:59:30;;;;;;;18.27;11.57;;;;;;;12.94;62.91;98100.91;5032492;28;20197;-78
2023/03/07 10:02:22;;;;;;;15.67;12.73;;;;;;;13.26;61.71;98105.97;5025344;28;20216;-79
2023/03/07 10:05:03;;;;;;;14.47;11.80;;;;;;;13.13;61.88;98099.28;5002226;28;20215;-79
2023/03/07 10:07:37;;;;;;;14.23;12.03;;;;;;;13.21;62.09;98100.59;5027887;28;20270;-79
2023/03/07 10:10:11;;;;;;;15.40;11.60;;;;;;;13.05;62.81;98102.53;5017905;28;20190;-79
2023/03/07 10:12:57;;;;;;;15.60;12.43;;;;;;;13.12;62.97;98100.38;5026708;28;20317;-79
2023/03/07 10:15:47;;;;;;;19.87;13.53;;;;;;;13.26;63.24;98089.84;5032185;28;20194;-79
2023/03/07 10:18:32;;;;;;;15.63;13.77;;;;;;;13.35;62.77;98096.25;5029962;28;20202;-79
2023/03/07 10:21:24;;;;;;;14.47;11.93;;;;;;;13.49;62.55;98091.91;5028353;28;20198;-79
2023/03/07 10:24:16;;;;;;;16.07;12.23;;;;;;;13.63;62.79;98098.31;5029532;28;20273;-79
2023/03/07 10:27:11;;;;;;;15.80;12.30;;;;;;;13.56;63.16;98092.44;5031720;28;20544;-79
2023/03/07 10:29:49;;;;;;;14.33;12.20;;;;;;;13.57;63.33;98087.84;5028194;28;20185;-79
2023/03/07 10:32:39;;;;;;;14.43;12.33;;;;;;;13.45;62.74;98090.84;5009783;28;20194;-80
2023/03/07 10:35:15;;;;;;;15.80;12.10;;;;;;;13.50;63.06;98082.75;5030372;28;20225;-81
2023/03/07 10:37:54;;;;;;;14.33;11.67;;;;;;;13.56;63.22;98076.28;5032627;28;20670;-80
2023/03/07 10:40:44;;;;;;;12.27;10.97;;;;;;;13.45;64.27;98079.28;5031824;28;20181;-79
2023/03/07 10:43:27;;;;;;;10.97;9.87;;;;;;;13.51;63.44;98079.00;5029160;28;20279;-78
2023/03/07 10:46:03;;;;;;;11.03;9.73;;;;;;;13.43;63.39;98079.56;5028366;28;20212;-79
2023/03/07 10:48:59;;;;;;;10.73;9.40;;;;;;;13.31;63.20;98072.88;5009559;28;20195;-79
2023/03/07 10:51:49;;;;;;;9.97;8.93;;;;;;;13.29;63.66;98072.38;5031488;28;20221;-78
2023/03/07 10:54:21;;;;;;;10.63;9.00;;;;;;;13.32;63.41;98064.53;5019891;28;20249;-78
2023/03/07 10:57:17;;;;;;;10.37;9.17;;;;;;;13.19;63.65;98057.88;5014254;28;20304;-79
2023/03/07 10:59:51;;;;;;;8.47;7.63;;;;;;;13.10;63.79;98056.00;5025787;28;20693;-78
2023/03/07 11:02:39;;;;;;;7.97;7.17;;;;;;;12.97;64.39;98059.25;5000286;28;20646;-79
2023/03/07 11:05:32;;;;;;;8.53;7.70;;;;;;;13.02;64.28;98051.97;5014711;28;20305;-77
2023/03/07 11:08:01;;;;;;;7.83;7.03;;;;;;;13.03;64.33;98050.09;5031496;28;20198;-79
2023/03/07 11:10:54;;;;;;;8.17;7.20;;;;;;;13.22;63.90;98043.06;5031421;28;20206;-79
2023/03/07 11:13:22;;;;;;;7.70;7.00;;;;;;;13.18;64.07;98037.44;5012471;28;20233;-78
2023/03/07 11:15:51;;;;;;;8.40;6.53;;;;;;;13.28;64.54;98030.41;5031871;28;20221;-79
2023/03/07 11:18:40;;;;;;;7.90;7.10;;;;;;;13.38;63.59;98030.38;5031502;28;20209;-78
2023/03/07 11:21:30;;;;;;;7.90;7.10;;;;;;;13.55;62.82;98020.84;5032219;28;20202;-79
2023/03/07 11:24:07;;;;;;;7.37;6.67;;;;;;;13.61;62.87;98006.31;5023870;28;20245;-79
2023/03/07 11:26:41;;;;;;;6.90;6.27;;;;;;;13.37;63.04;98004.53;5015005;28;20273;-79
2023/03/07 11:29:12;;;;;;;8.63;7.83;;;;;;;13.39;63.23;97997.00;5007049;28;20206;-78
2023/03/07 11:32:04;;;;;;;7.50;6.80;;;;;;;13.14;63.58;98001.41;5033115;28;20198;-78
2023/03/07 11:34:39;;;;;;;7.23;6.53;;;;;;;13.26;62.98;97998.41;5008721;28;20202;-79
2023/03/07 11:37:18;;;;;;;7.90;7.10;;;;;;;13.26;62.76;97998.41;5034542;28;20297;-79
2023/03/07 11:40:08;;;;;;;5.90;5.23;;;;;;;13.32;63.19;98001.88;5035777;28;20615;-79
2023/03/07 11:42:45;;;;;;;5.50;5.00;;;;;;;13.22;64.17;97976.63;5007716;28;20213;-79
2023/03/07 11:45:28;;;;;;;13.10;12.00;;;;;;;13.28;63.52;97977.44;5018149;28;20757;-79
2023/03/07 11:47:58;;;;;;;7.27;6.67;;;;;;;13.29;62.77;97962.09;5012146;28;20248;-81
2023/03/07 11:50:29;;;;;;;5.93;5.27;;;;;;;13.16;63.71;97969.66;5035781;28;20190;-78
2023/03/07 11:53:05;;;;;;;4.90;4.50;;;;;;;13.14;63.28;97965.66;5017826;28;20209;-79